createdAt,value
2022-10-05T00:01:22.401Z,21.00
2022-10-05T00:03:49.182Z,24.10
2022-10-05T00:06:15.841Z,26.80
2022-10-05T00:08:43.345Z,23.90
2022-10-05T00:11:15.189Z,23.40
2022-10-05T00:13:42.330Z,21.20
2022-10-05T00:16:22.268Z,19.10
2022-10-05T00:18:51.961Z,22.30
2022-10-05T00:21:26.048Z,22.80
2022-10-05T00:23:56.885Z,26.10
2022-10-05T00:26:26.971Z,25.90
2022-10-05T00:28:54.776Z,21.90
2022-10-05T00:31:30.717Z,19.20
2022-10-05T00:33:58.009Z,19.10
2022-10-05T00:36:26.166Z,18.90
2022-10-05T00:38:53.274Z,19.50
2022-10-05T00:41:56.935Z,16.40
2022-10-05T00:45:15.362Z,17.40
2022-10-05T00:48:33.733Z,19.40
2022-10-05T00:51:25.710Z,19.20
2022-10-05T00:54:17.448Z,21.30
2022-10-05T00:57:31.789Z,25.60
2022-10-05T01:00:04.847Z,22.40
2022-10-05T01:02:59.272Z,19.90
2022-10-05T01:05:49.929Z,18.60
2022-10-05T01:08:51.229Z,19.00
2022-10-05T01:11:45.313Z,20.00
2022-10-05T01:14:27.621Z,18.30
2022-10-05T01:17:18.482Z,16.20
2022-10-05T01:20:15.080Z,17.20
2022-10-05T01:23:36.102Z,17.80
2022-10-05T01:26:20.618Z,18.30
2022-10-05T01:29:06.250Z,17.30
2022-10-05T01:31:45.050Z,25.50
2022-10-05T01:34:35.642Z,17.20
2022-10-05T01:37:24.697Z,16.50
2022-10-05T01:40:23.456Z,18.30
2022-10-05T01:43:27.998Z,17.00
2022-10-05T01:46:28.802Z,18.70
2022-10-05T01:49:28.306Z,19.80
2022-10-05T01:52:18.525Z,20.20
2022-10-05T01:55:14.153Z,17.40
2022-10-05T01:58:03.250Z,20.00
2022-10-05T02:00:38.949Z,13.70
2022-10-05T02:03:19.276Z,14.00
2022-10-05T02:06:04.269Z,14.60
2022-10-05T02:08:39.509Z,14.20
2022-10-05T02:11:24.112Z,13.10
2022-10-05T02:13:58.194Z,13.10
2022-10-05T02:16:44.003Z,14.60
2022-10-05T02:19:32.081Z,16.40
2022-10-05T02:22:21.583Z,17.20
2022-10-05T02:24:55.496Z,18.30
2022-10-05T02:27:29.835Z,17.20
2022-10-05T02:30:05.899Z,14.90
2022-10-05T02:32:49.689Z,17.40
2022-10-05T02:35:19.858Z,17.20
2022-10-05T02:38:16.940Z,16.70
2022-10-05T02:40:59.809Z,15.80
2022-10-05T02:43:39.047Z,17.50
2022-10-05T02:46:41.827Z,17.50
2022-10-05T02:49:48.120Z,15.10
2022-10-05T02:52:27.613Z,12.30
2022-10-05T02:55:19.172Z,13.50
2022-10-05T02:58:11.961Z,13.60
2022-10-05T03:01:20.165Z,18.60
2022-10-05T03:04:46.409Z,13.60
2022-10-05T03:07:23.563Z,11.30
2022-10-05T03:10:04.903Z,14.10
2022-10-05T03:12:52.661Z,15.20
2022-10-05T03:16:04.335Z,14.70
2022-10-05T03:19:22.192Z,16.00
2022-10-05T03:22:26.089Z,15.80
2022-10-05T03:25:47.156Z,17.30
2022-10-05T03:28:26.738Z,13.90
2022-10-05T03:31:18.480Z,17.30
2022-10-05T03:34:00.200Z,16.20
2022-10-05T03:36:29.643Z,15.70
2022-10-05T03:39:20.590Z,14.50
2022-10-05T03:42:05.527Z,16.10
2022-10-05T03:44:39.236Z,12.70
2022-10-05T03:47:30.008Z,15.90
2022-10-05T03:50:31.553Z,13.50
2022-10-05T03:53:06.846Z,14.70
2022-10-05T03:55:45.424Z,16.50
2022-10-05T03:58:42.617Z,17.00
2022-10-05T04:01:18.640Z,14.80
2022-10-05T04:03:57.174Z,15.90
2022-10-05T04:06:33.271Z,12.60
2022-10-05T04:09:11.208Z,12.90
2022-10-05T04:11:52.431Z,12.70
2022-10-05T04:14:26.786Z,13.00
2022-10-05T04:17:06.162Z,12.60
2022-10-05T04:19:45.833Z,13.20
2022-10-05T04:22:25.152Z,15.70
2022-10-05T04:25:16.766Z,14.10
2022-10-05T04:27:54.907Z,15.10
2022-10-05T04:30:24.606Z,14.10
2022-10-05T04:32:57.773Z,14.70
2022-10-05T04:35:53.435Z,13.10
2022-10-05T04:38:35.060Z,16.20
2022-10-05T04:41:37.275Z,14.40
2022-10-05T04:44:37.526Z,14.60
2022-10-05T04:47:38.702Z,12.40
2022-10-05T04:50:24.060Z,14.10
2022-10-05T04:53:23.209Z,15.50
2022-10-05T04:56:03.302Z,14.10
2022-10-05T04:58:45.443Z,12.30
2022-10-05T05:01:41.772Z,13.90
2022-10-05T05:04:51.814Z,12.60
2022-10-05T05:07:52.913Z,13.90
2022-10-05T05:10:31.694Z,14.40
2022-10-05T05:13:13.660Z,16.50
2022-10-05T05:16:04.667Z,19.40
2022-10-05T05:19:12.823Z,20.30
2022-10-05T05:22:00.159Z,17.20
2022-10-05T05:24:40.770Z,16.40
2022-10-05T05:27:38.776Z,13.60
2022-10-05T05:30:24.562Z,13.90
2022-10-05T05:33:13.748Z,12.90
2022-10-05T05:36:09.154Z,18.50
2022-10-05T05:38:49.150Z,14.80
2022-10-05T05:41:35.226Z,15.20
2022-10-05T05:44:17.235Z,12.50
2022-10-05T05:47:35.142Z,13.40
2022-10-05T05:50:41.164Z,14.60
2022-10-05T05:53:42.793Z,12.90
2022-10-05T05:56:21.973Z,14.30
2022-10-05T05:59:02.598Z,16.50
2022-10-05T06:01:47.354Z,15.40
2022-10-05T06:04:31.583Z,18.80
2022-10-05T06:07:03.545Z,14.60
2022-10-05T06:09:41.405Z,14.00
2022-10-05T06:12:16.759Z,15.70
2022-10-05T06:14:51.279Z,11.20
2022-10-05T06:17:35.133Z,14.70
2022-10-05T06:20:09.268Z,13.00
2022-10-05T06:22:47.253Z,15.40
2022-10-05T06:25:13.655Z,10.20
2022-10-05T06:28:13.409Z,12.70
2022-10-05T06:31:03.788Z,13.00
2022-10-05T06:33:52.135Z,10.70
2022-10-05T06:36:32.513Z,13.10
2022-10-05T06:39:18.672Z,12.10
2022-10-05T06:42:16.968Z,13.40
2022-10-05T06:45:21.440Z,13.10
2022-10-05T06:48:25.446Z,14.70
2022-10-05T06:51:07.905Z,15.70
2022-10-05T06:53:53.403Z,14.00
2022-10-05T06:56:50.353Z,15.00
2022-10-05T06:59:42.989Z,14.50
2022-10-05T07:02:56.122Z,14.60
2022-10-05T07:05:44.446Z,13.60
2022-10-05T07:08:20.439Z,14.10
2022-10-05T07:11:30.969Z,14.50
2022-10-05T07:14:03.730Z,14.50
2022-10-05T07:17:18.947Z,15.30
2022-10-05T07:20:09.822Z,31.30
2022-10-05T07:22:59.275Z,14.50
2022-10-05T07:25:41.115Z,11.80
2022-10-05T07:28:30.043Z,18.30
2022-10-05T07:31:06.855Z,25.00
2022-10-05T07:33:46.208Z,20.60
2022-10-05T07:36:54.843Z,14.00
2022-10-05T07:39:58.551Z,12.00
2022-10-05T07:42:56.468Z,14.20
2022-10-05T07:45:42.940Z,13.90
2022-10-05T07:48:22.514Z,12.60
2022-10-05T07:51:22.745Z,13.10
2022-10-05T07:54:16.000Z,13.90
2022-10-05T07:56:47.065Z,14.10
2022-10-05T07:59:31.253Z,12.80
2022-10-05T08:02:18.825Z,15.00
2022-10-05T08:04:59.726Z,14.00
2022-10-05T08:07:31.539Z,13.60
2022-10-05T08:10:33.951Z,13.30
2022-10-05T08:13:16.726Z,14.60
2022-10-05T08:15:49.505Z,13.00
2022-10-05T08:18:37.311Z,11.90
2022-10-05T08:21:11.930Z,14.80
2022-10-05T08:23:56.659Z,11.50
2022-10-05T08:27:01.190Z,12.00
2022-10-05T08:30:01.538Z,11.50
2022-10-05T08:32:45.590Z,10.40
2022-10-05T08:35:28.267Z,14.70
2022-10-05T08:37:55.979Z,9.60
2022-10-05T08:40:46.938Z,8.20
2022-10-05T08:43:44.566Z,9.50
2022-10-05T08:46:58.137Z,10.00
2022-10-05T08:50:18.197Z,9.20
2022-10-05T08:53:41.738Z,10.10
2022-10-05T08:56:19.071Z,9.20
2022-10-05T08:59:14.215Z,11.50
2022-10-05T09:02:13.607Z,9.30
2022-10-05T09:05:44.754Z,11.10
2022-10-05T09:08:35.972Z,7.50
2022-10-05T09:11:17.688Z,10.40
2022-10-05T09:14:11.182Z,13.50
2022-10-05T09:16:52.985Z,8.80
2022-10-05T09:19:43.576Z,10.80
2022-10-05T09:22:24.149Z,10.00
2022-10-05T09:24:57.170Z,10.20
2022-10-05T09:27:37.853Z,12.30
2022-10-05T09:30:36.422Z,10.20
2022-10-05T09:33:47.589Z,9.90
2022-10-05T09:36:48.097Z,8.90
2022-10-05T09:39:44.209Z,9.30
2022-10-05T09:42:37.024Z,8.40
2022-10-05T09:45:41.348Z,8.40
2022-10-05T09:49:18.943Z,10.60
2022-10-05T09:52:41.100Z,9.00
2022-10-05T09:55:37.831Z,10.70
2022-10-05T09:58:48.924Z,11.00
2022-10-05T10:01:33.801Z,8.70
2022-10-05T10:04:36.439Z,9.40
2022-10-05T10:08:00.680Z,10.00
2022-10-05T10:10:56.124Z,7.60
2022-10-05T10:14:02.798Z,7.30
2022-10-05T10:17:37.693Z,9.10
2022-10-05T10:20:21.492Z,9.60
2022-10-05T10:22:57.548Z,9.30
2022-10-05T10:26:02.515Z,9.70
2022-10-05T10:28:54.538Z,21.30
2022-10-05T10:31:55.988Z,10.30
2022-10-05T10:34:53.308Z,7.90
2022-10-05T10:37:52.343Z,8.00
2022-10-05T10:40:43.015Z,6.60
2022-10-05T10:43:55.606Z,9.20
2022-10-05T10:46:45.579Z,7.20
2022-10-05T10:49:47.810Z,9.50
2022-10-05T10:52:56.699Z,7.50
2022-10-05T10:56:04.095Z,8.20
2022-10-05T10:59:07.638Z,8.20
2022-10-05T11:02:18.170Z,7.60
2022-10-05T11:05:28.639Z,8.20
2022-10-05T11:08:35.072Z,8.60
2022-10-05T11:11:32.884Z,9.50
2022-10-05T11:14:47.190Z,6.00
2022-10-05T11:17:44.697Z,7.50
2022-10-05T11:20:48.063Z,6.40
2022-10-05T11:24:12.801Z,8.00
2022-10-05T11:27:17.439Z,7.70
2022-10-05T11:30:35.285Z,4.90
2022-10-05T11:33:36.260Z,6.80
2022-10-05T11:36:33.672Z,5.30
2022-10-05T11:39:30.802Z,6.00
2022-10-05T11:42:30.981Z,6.90
2022-10-05T11:45:23.339Z,5.00
2022-10-05T11:48:42.746Z,6.10
2022-10-05T11:51:34.754Z,5.50
2022-10-05T11:54:52.110Z,6.20
2022-10-05T11:57:53.252Z,6.60
2022-10-05T12:00:24.894Z,6.30
2022-10-05T12:03:19.280Z,5.60
2022-10-05T12:06:21.909Z,8.30
2022-10-05T12:09:17.797Z,7.00
2022-10-05T12:12:18.692Z,10.20
2022-10-05T12:15:01.601Z,7.90
2022-10-05T12:17:48.211Z,6.40
2022-10-05T12:20:28.052Z,6.40
2022-10-05T12:23:15.013Z,7.00
2022-10-05T12:25:49.923Z,5.70
2022-10-05T12:28:27.587Z,7.00
2022-10-05T12:31:05.242Z,6.20
2022-10-05T12:33:47.340Z,5.70
2022-10-05T12:36:26.352Z,9.80
2022-10-05T12:39:13.808Z,6.00
2022-10-05T12:41:57.700Z,8.50
2022-10-05T12:45:25.852Z,6.90
2022-10-05T12:48:14.567Z,6.10
2022-10-05T12:50:49.206Z,5.60
2022-10-05T12:53:50.233Z,6.50
2022-10-05T12:56:44.717Z,5.80
2022-10-05T12:59:40.369Z,8.00
2022-10-05T13:02:43.812Z,5.80
2022-10-05T13:05:10.151Z,6.30
2022-10-05T13:08:17.960Z,7.10
2022-10-05T13:11:33.020Z,6.10
2022-10-05T13:14:19.775Z,6.70
2022-10-05T13:17:14.668Z,5.00
2022-10-05T13:19:56.216Z,4.90
2022-10-05T13:22:48.502Z,7.70
2022-10-05T13:25:32.774Z,5.80
2022-10-05T13:28:02.076Z,5.80
2022-10-05T13:30:29.644Z,5.90
2022-10-05T13:33:21.524Z,7.70
2022-10-05T13:36:14.723Z,6.30
2022-10-05T13:39:05.612Z,5.30
2022-10-05T13:42:32.865Z,5.40
2022-10-05T13:45:20.580Z,5.20
2022-10-05T13:48:41.307Z,6.00
2022-10-05T13:51:18.357Z,6.30
2022-10-05T13:53:59.516Z,5.30
2022-10-05T13:56:33.420Z,5.60
2022-10-05T13:59:18.987Z,4.80
2022-10-05T14:02:07.591Z,5.40
2022-10-05T14:04:50.789Z,5.90
2022-10-05T14:07:56.530Z,5.60
2022-10-05T14:10:44.391Z,7.00
2022-10-05T14:13:46.618Z,4.90
2022-10-05T14:16:13.168Z,5.20
2022-10-05T14:19:05.808Z,5.70
2022-10-05T14:21:49.524Z,6.10
2022-10-05T14:24:54.682Z,6.00
2022-10-05T14:27:33.212Z,5.50
2022-10-05T14:30:03.110Z,8.70
2022-10-05T14:32:47.731Z,6.40
2022-10-05T14:35:18.453Z,6.20
2022-10-05T14:37:53.909Z,8.10
2022-10-05T14:40:38.149Z,6.30
2022-10-05T14:43:13.844Z,10.00
2022-10-05T14:46:15.070Z,8.30
2022-10-05T14:48:45.122Z,5.90
2022-10-05T14:51:32.370Z,5.30
2022-10-05T14:54:29.067Z,7.30
2022-10-05T14:57:10.093Z,9.00
2022-10-05T15:00:11.976Z,9.60
2022-10-05T15:02:59.708Z,6.00
2022-10-05T15:05:43.430Z,8.30
2022-10-05T15:08:31.369Z,6.50
2022-10-05T15:11:07.517Z,13.20
2022-10-05T15:13:41.777Z,7.40
2022-10-05T15:16:25.953Z,9.50
2022-10-05T15:19:44.758Z,13.30
2022-10-05T15:22:48.802Z,8.50
2022-10-05T15:25:23.089Z,10.30
2022-10-05T15:28:48.320Z,7.50
2022-10-05T15:31:48.761Z,9.40
2022-10-05T15:34:37.419Z,9.00
2022-10-05T15:37:24.539Z,9.20
2022-10-05T15:40:03.688Z,11.90
2022-10-05T15:42:41.502Z,11.10
2022-10-05T15:45:23.466Z,8.90
2022-10-05T15:48:00.968Z,6.40
2022-10-05T15:50:35.133Z,7.70
2022-10-05T15:53:14.412Z,7.60
2022-10-05T15:56:03.032Z,15.60
2022-10-05T15:58:55.743Z,13.00
2022-10-05T16:01:52.501Z,12.60
2022-10-05T16:04:54.683Z,14.00
2022-10-05T16:07:50.697Z,12.90
2022-10-05T16:10:22.209Z,12.80
2022-10-05T16:13:05.715Z,16.20
2022-10-05T16:15:50.119Z,16.00
2022-10-05T16:19:01.055Z,16.50
2022-10-05T16:21:58.394Z,13.40
2022-10-05T16:24:59.661Z,10.60
2022-10-05T16:28:29.258Z,11.00
2022-10-05T16:31:12.818Z,10.70
2022-10-05T16:34:09.442Z,11.40
2022-10-05T16:37:20.541Z,10.10
2022-10-05T16:39:55.639Z,12.50
2022-10-05T16:43:03.104Z,11.30
2022-10-05T16:45:58.386Z,11.00
2022-10-05T16:48:31.015Z,13.20
2022-10-05T16:51:24.919Z,21.70
2022-10-05T16:54:09.891Z,15.30
2022-10-05T16:57:22.165Z,10.00
2022-10-05T17:00:14.912Z,8.20
2022-10-05T17:03:13.303Z,9.30
2022-10-05T17:06:13.410Z,10.90
2022-10-05T17:09:14.475Z,18.20
2022-10-05T17:11:54.048Z,17.70
2022-10-05T17:15:14.635Z,21.00
2022-10-05T17:18:23.559Z,18.50
2022-10-05T17:21:07.917Z,14.50
2022-10-05T17:23:57.577Z,14.30
2022-10-05T17:26:45.861Z,12.90
2022-10-05T17:29:27.994Z,11.60
2022-10-05T17:32:06.330Z,12.90
2022-10-05T17:34:36.346Z,11.60
2022-10-05T17:37:38.999Z,15.50
2022-10-05T17:40:38.605Z,15.00
2022-10-05T17:43:17.186Z,17.00
2022-10-05T17:45:43.591Z,19.80
2022-10-05T17:48:12.977Z,18.20
2022-10-05T17:51:08.366Z,16.70
2022-10-05T17:54:05.712Z,17.70
2022-10-05T17:56:53.667Z,23.00
2022-10-05T17:59:58.999Z,17.50
2022-10-05T18:02:38.461Z,19.10
2022-10-05T18:05:04.929Z,16.20
2022-10-05T18:07:37.127Z,14.70
2022-10-05T18:10:09.747Z,13.20
2022-10-05T18:12:36.079Z,14.80
2022-10-05T18:15:22.331Z,16.10
2022-10-05T18:17:57.360Z,15.10
2022-10-05T18:20:32.578Z,16.00
2022-10-05T18:23:09.500Z,18.10
2022-10-05T18:25:53.075Z,13.30
2022-10-05T18:28:47.245Z,14.30
2022-10-05T18:31:42.202Z,16.20
2022-10-05T18:34:34.971Z,13.50
2022-10-05T18:38:00.745Z,15.10
2022-10-05T18:40:54.062Z,14.60
2022-10-05T18:43:38.007Z,16.60
2022-10-05T18:46:22.572Z,13.80
2022-10-05T18:49:51.858Z,14.60
2022-10-05T18:53:05.033Z,12.60
2022-10-05T18:56:12.152Z,13.10
2022-10-05T18:58:53.208Z,12.30
2022-10-05T19:02:02.165Z,12.90
2022-10-05T19:05:00.115Z,12.50
2022-10-05T19:07:38.654Z,14.20
2022-10-05T19:10:40.044Z,12.70
2022-10-05T19:13:20.739Z,13.50
2022-10-05T19:16:03.123Z,11.10
2022-10-05T19:19:22.290Z,12.70
2022-10-05T19:22:12.591Z,15.30
2022-10-05T19:24:57.097Z,13.60
2022-10-05T19:28:04.142Z,11.90
2022-10-05T19:31:21.341Z,11.50
2022-10-05T19:34:33.206Z,15.00
2022-10-05T19:37:25.028Z,14.00
2022-10-05T19:40:09.676Z,11.80
2022-10-05T19:43:21.039Z,12.40
2022-10-05T19:46:14.154Z,20.60
2022-10-05T19:48:52.340Z,16.40
2022-10-05T19:51:29.299Z,15.10
2022-10-05T19:54:29.140Z,12.70
2022-10-05T19:56:57.802Z,15.80
2022-10-05T19:59:32.567Z,17.00
2022-10-05T20:01:59.486Z,19.40
2022-10-05T20:04:40.888Z,22.50
2022-10-05T20:07:15.799Z,19.10
2022-10-05T20:09:59.121Z,16.20
2022-10-05T20:13:01.534Z,13.60
2022-10-05T20:16:13.575Z,10.70
2022-10-05T20:19:07.685Z,11.10
2022-10-05T20:21:59.820Z,11.80
2022-10-05T20:24:29.693Z,12.30
2022-10-05T20:27:02.773Z,10.50
2022-10-05T20:29:37.654Z,13.20
2022-10-05T20:32:12.186Z,11.40
2022-10-05T20:34:42.208Z,11.60
2022-10-05T20:37:11.577Z,10.90
2022-10-05T20:39:39.349Z,11.10
2022-10-05T20:42:07.770Z,10.60
2022-10-05T20:44:36.408Z,10.00
2022-10-05T20:47:04.862Z,16.70
2022-10-05T20:49:32.528Z,17.30
2022-10-05T20:51:59.247Z,13.90
2022-10-05T20:54:27.598Z,14.30
2022-10-05T20:56:55.886Z,12.30
2022-10-05T20:59:24.943Z,16.30
2022-10-05T21:01:52.450Z,18.60
2022-10-05T21:04:23.254Z,14.70
2022-10-05T21:06:49.800Z,13.80
2022-10-05T21:09:19.504Z,16.60
2022-10-05T21:11:49.981Z,12.40
2022-10-05T21:14:17.273Z,18.50
2022-10-05T21:16:45.858Z,13.80
2022-10-05T21:19:14.695Z,13.80
2022-10-05T21:21:46.001Z,13.40
2022-10-05T21:24:14.974Z,14.60
2022-10-05T21:26:42.521Z,14.00
2022-10-05T21:29:12.810Z,13.90
2022-10-05T21:31:40.087Z,13.20
2022-10-05T21:34:07.520Z,14.70
2022-10-05T21:36:34.575Z,11.80
2022-10-05T21:39:01.524Z,12.90
2022-10-05T21:41:28.265Z,13.50
2022-10-05T21:43:54.789Z,13.30
2022-10-05T21:46:25.777Z,11.90
2022-10-05T21:48:54.310Z,12.90
2022-10-05T21:51:25.367Z,13.70
2022-10-05T21:54:03.710Z,14.20
2022-10-05T21:56:38.610Z,14.20
2022-10-05T21:59:10.153Z,16.70
2022-10-05T22:01:36.898Z,13.50
2022-10-05T22:04:07.403Z,16.20
2022-10-05T22:06:36.223Z,15.10
2022-10-05T22:09:05.444Z,14.80
2022-10-05T22:11:32.416Z,14.80
2022-10-05T22:14:02.738Z,13.20
2022-10-05T22:16:34.219Z,15.10
2022-10-05T22:19:16.411Z,15.20
2022-10-05T22:21:42.984Z,14.10
2022-10-05T22:24:11.652Z,16.70
2022-10-05T22:26:41.929Z,13.90
2022-10-05T22:29:09.550Z,16.70
2022-10-05T22:31:36.915Z,14.60
2022-10-05T22:34:03.455Z,17.40
2022-10-05T22:36:30.082Z,15.90
2022-10-05T22:38:56.585Z,15.20
2022-10-05T22:41:23.093Z,13.00
2022-10-05T22:43:50.851Z,12.70
2022-10-05T22:46:18.499Z,10.80
2022-10-05T22:48:45.088Z,12.80
2022-10-05T22:51:11.879Z,12.30
2022-10-05T22:53:38.535Z,10.80
2022-10-05T22:56:13.190Z,13.60
2022-10-05T22:58:41.614Z,13.60
2022-10-05T23:01:11.996Z,11.60
2022-10-05T23:03:38.809Z,11.60
2022-10-05T23:06:20.222Z,10.90
2022-10-05T23:08:47.542Z,10.90
2022-10-05T23:11:17.463Z,10.80
2022-10-05T23:13:44.741Z,10.70
2022-10-05T23:16:14.968Z,9.50
2022-10-05T23:18:42.493Z,14.50
2022-10-05T23:21:11.071Z,8.60
2022-10-05T23:23:40.372Z,10.30
2022-10-05T23:26:10.871Z,10.90
2022-10-05T23:28:43.190Z,10.10
2022-10-05T23:31:09.840Z,12.50
2022-10-05T23:33:36.590Z,10.90
2022-10-05T23:36:14.042Z,11.80
2022-10-05T23:38:40.632Z,9.80
2022-10-05T23:41:08.699Z,11.30
2022-10-05T23:43:36.761Z,11.70
2022-10-05T23:46:05.878Z,11.90
2022-10-05T23:48:34.061Z,9.80
2022-10-05T23:51:00.574Z,9.10
2022-10-05T23:53:27.429Z,9.40
2022-10-05T23:55:54.864Z,11.40
2022-10-05T23:58:22.589Z,9.50
